sensor_id;sensor_type;location;lat;lon;timestamp;temperature;humidity
45619;DHT22;31343;47.520;19.144;2023-05-24T00:01:27;18.70;99.90
45619;DHT22;31343;47.520;19.144;2023-05-24T00:03:54;18.60;99.90
45619;DHT22;31343;47.520;19.144;2023-05-24T00:06:26;18.70;99.90
45619;DHT22;31343;47.520;19.144;2023-05-24T00:08:53;18.70;99.90
45619;DHT22;31343;47.520;19.144;2023-05-24T00:11:19;18.70;99.90
45619;DHT22;31343;47.520;19.144;2023-05-24T00:13:45;18.70;99.90
45619;DHT22;31343;47.520;19.144;2023-05-24T00:16:11;18.60;99.90
45619;DHT22;31343;47.520;19.144;2023-05-24T00:18:36;18.60;99.90
45619;DHT22;31343;47.520;19.144;2023-05-24T00:21:09;18.60;99.90
45619;DHT22;31343;47.520;19.144;2023-05-24T00:23:36;18.50;99.90
45619;DHT22;31343;47.520;19.144;2023-05-24T00:26:03;18.60;99.90
45619;DHT22;31343;47.520;19.144;2023-05-24T00:28:29;18.60;99.90
45619;DHT22;31343;47.520;19.144;2023-05-24T00:30:58;18.50;99.90
45619;DHT22;31343;47.520;19.144;2023-05-24T00:33:24;18.60;99.90
45619;DHT22;31343;47.520;19.144;2023-05-24T00:35:50;18.50;99.90
45619;DHT22;31343;47.520;19.144;2023-05-24T00:38:21;18.60;99.90
45619;DHT22;31343;47.520;19.144;2023-05-24T00:40:48;18.50;99.90
45619;DHT22;31343;47.520;19.144;2023-05-24T00:43:14;18.40;99.90
45619;DHT22;31343;47.520;19.144;2023-05-24T00:45:40;18.50;99.90
45619;DHT22;31343;47.520;19.144;2023-05-24T00:48:06;18.50;99.90
45619;DHT22;31343;47.520;19.144;2023-05-24T00:50:32;18.50;99.90
45619;DHT22;31343;47.520;19.144;2023-05-24T00:53:02;18.50;99.90
45619;DHT22;31343;47.520;19.144;2023-05-24T00:55:28;18.40;99.90
45619;DHT22;31343;47.520;19.144;2023-05-24T00:57:56;18.40;99.90
45619;DHT22;31343;47.520;19.144;2023-05-24T01:00:22;18.40;99.90
45619;DHT22;31343;47.520;19.144;2023-05-24T01:02:50;18.50;99.90
45619;DHT22;31343;47.520;19.144;2023-05-24T01:05:17;18.50;99.90
45619;DHT22;31343;47.520;19.144;2023-05-24T01:10:28;18.40;99.90
45619;DHT22;31343;47.520;19.144;2023-05-24T01:13:14;18.40;99.90
45619;DHT22;31343;47.520;19.144;2023-05-24T01:18:28;18.40;99.90
45619;DHT22;31343;47.520;19.144;2023-05-24T01:21:12;18.40;99.90
45619;DHT22;31343;47.520;19.144;2023-05-24T01:23:50;18.40;99.90
45619;DHT22;31343;47.520;19.144;2023-05-24T01:26:36;18.40;99.90
45619;DHT22;31343;47.520;19.144;2023-05-24T01:29:04;18.40;99.90
45619;DHT22;31343;47.520;19.144;2023-05-24T01:31:30;18.30;99.90
45619;DHT22;31343;47.520;19.144;2023-05-24T01:33:56;18.40;99.90
45619;DHT22;31343;47.520;19.144;2023-05-24T01:36:21;18.30;99.90
45619;DHT22;31343;47.520;19.144;2023-05-24T01:38:48;18.30;99.90
45619;DHT22;31343;47.520;19.144;2023-05-24T01:46:46;18.20;99.90
45619;DHT22;31343;47.520;19.144;2023-05-24T01:49:26;18.20;99.90
45619;DHT22;31343;47.520;19.144;2023-05-24T01:52:00;18.10;99.90
45619;DHT22;31343;47.520;19.144;2023-05-24T01:54:29;18.10;99.90
45619;DHT22;31343;47.520;19.144;2023-05-24T01:56:56;18.10;99.90
45619;DHT22;31343;47.520;19.144;2023-05-24T01:59:25;18.10;99.90
45619;DHT22;31343;47.520;19.144;2023-05-24T02:01:53;18.10;99.90
45619;DHT22;31343;47.520;19.144;2023-05-24T02:04:19;18.10;99.90
45619;DHT22;31343;47.520;19.144;2023-05-24T02:06:45;18.00;99.90
45619;DHT22;31343;47.520;19.144;2023-05-24T02:09:10;18.00;99.90
45619;DHT22;31343;47.520;19.144;2023-05-24T02:11:36;18.10;99.90
45619;DHT22;31343;47.520;19.144;2023-05-24T02:14:02;18.10;99.90
45619;DHT22;31343;47.520;19.144;2023-05-24T02:16:28;18.10;99.90
45619;DHT22;31343;47.520;19.144;2023-05-24T02:18:56;18.10;99.90
45619;DHT22;31343;47.520;19.144;2023-05-24T02:21:22;18.10;99.90
45619;DHT22;31343;47.520;19.144;2023-05-24T02:23:51;18.00;99.90
45619;DHT22;31343;47.520;19.144;2023-05-24T02:26:17;18.00;99.90
45619;DHT22;31343;47.520;19.144;2023-05-24T02:28:43;18.00;99.90
45619;DHT22;31343;47.520;19.144;2023-05-24T02:31:09;17.90;99.90
45619;DHT22;31343;47.520;19.144;2023-05-24T02:33:35;17.90;99.90
45619;DHT22;31343;47.520;19.144;2023-05-24T02:36:01;17.90;99.90
45619;DHT22;31343;47.520;19.144;2023-05-24T02:38:27;17.90;99.90
45619;DHT22;31343;47.520;19.144;2023-05-24T02:40:53;17.80;99.90
45619;DHT22;31343;47.520;19.144;2023-05-24T02:43:18;17.70;99.90
45619;DHT22;31343;47.520;19.144;2023-05-24T02:45:44;17.70;99.90
45619;DHT22;31343;47.520;19.144;2023-05-24T02:48:10;17.70;99.90
45619;DHT22;31343;47.520;19.144;2023-05-24T02:50:35;17.70;99.90
45619;DHT22;31343;47.520;19.144;2023-05-24T02:53:01;17.70;99.90
45619;DHT22;31343;47.520;19.144;2023-05-24T02:55:27;17.70;99.90
45619;DHT22;31343;47.520;19.144;2023-05-24T02:57:54;17.60;99.90
45619;DHT22;31343;47.520;19.144;2023-05-24T03:00:20;17.70;99.90
45619;DHT22;31343;47.520;19.144;2023-05-24T03:02:45;17.60;99.90
45619;DHT22;31343;47.520;19.144;2023-05-24T03:05:16;17.60;99.90
45619;DHT22;31343;47.520;19.144;2023-05-24T03:07:42;17.60;99.90
45619;DHT22;31343;47.520;19.144;2023-05-24T03:10:08;17.60;99.90
45619;DHT22;31343;47.520;19.144;2023-05-24T03:12:33;17.50;99.90
45619;DHT22;31343;47.520;19.144;2023-05-24T03:14:59;17.60;99.90
45619;DHT22;31343;47.520;19.144;2023-05-24T03:17:25;17.60;99.90
45619;DHT22;31343;47.520;19.144;2023-05-24T03:19:51;17.60;99.90
45619;DHT22;31343;47.520;19.144;2023-05-24T03:22:17;17.60;99.90
45619;DHT22;31343;47.520;19.144;2023-05-24T03:24:43;17.60;99.90
45619;DHT22;31343;47.520;19.144;2023-05-24T03:27:10;17.60;99.90
45619;DHT22;31343;47.520;19.144;2023-05-24T03:29:36;17.70;99.90
45619;DHT22;31343;47.520;19.144;2023-05-24T03:32:02;17.70;99.90
45619;DHT22;31343;47.520;19.144;2023-05-24T03:34:28;17.70;99.90
45619;DHT22;31343;47.520;19.144;2023-05-24T03:36:54;17.70;99.90
45619;DHT22;31343;47.520;19.144;2023-05-24T03:39:20;17.60;99.90
45619;DHT22;31343;47.520;19.144;2023-05-24T03:41:46;17.70;99.90
45619;DHT22;31343;47.520;19.144;2023-05-24T03:44:12;17.70;99.90
45619;DHT22;31343;47.520;19.144;2023-05-24T03:46:37;17.70;99.90
45619;DHT22;31343;47.520;19.144;2023-05-24T03:49:03;17.70;99.90
45619;DHT22;31343;47.520;19.144;2023-05-24T03:51:29;17.80;99.90
45619;DHT22;31343;47.520;19.144;2023-05-24T03:53:58;17.90;99.90
45619;DHT22;31343;47.520;19.144;2023-05-24T03:56:24;18.00;99.90
45619;DHT22;31343;47.520;19.144;2023-05-24T03:58:51;18.00;99.90
45619;DHT22;31343;47.520;19.144;2023-05-24T04:01:17;18.10;99.90
45619;DHT22;31343;47.520;19.144;2023-05-24T04:03:44;18.10;99.90
45619;DHT22;31343;47.520;19.144;2023-05-24T04:06:13;18.00;99.90
45619;DHT22;31343;47.520;19.144;2023-05-24T04:08:39;18.00;99.90
45619;DHT22;31343;47.520;19.144;2023-05-24T04:11:04;18.00;99.90
45619;DHT22;31343;47.520;19.144;2023-05-24T04:13:30;18.00;99.90
45619;DHT22;31343;47.520;19.144;2023-05-24T04:15:56;18.00;99.90
45619;DHT22;31343;47.520;19.144;2023-05-24T04:18:22;17.90;99.90
45619;DHT22;31343;47.520;19.144;2023-05-24T04:20:47;18.00;99.90
45619;DHT22;31343;47.520;19.144;2023-05-24T04:23:13;18.00;99.90
45619;DHT22;31343;47.520;19.144;2023-05-24T04:25:39;18.10;99.90
45619;DHT22;31343;47.520;19.144;2023-05-24T04:28:05;18.10;99.90
45619;DHT22;31343;47.520;19.144;2023-05-24T04:30:31;18.10;99.90
45619;DHT22;31343;47.520;19.144;2023-05-24T04:32:57;18.00;99.90
45619;DHT22;31343;47.520;19.144;2023-05-24T04:35:24;18.00;99.90
45619;DHT22;31343;47.520;19.144;2023-05-24T04:37:53;18.00;99.90
45619;DHT22;31343;47.520;19.144;2023-05-24T04:40:19;18.10;99.90
45619;DHT22;31343;47.520;19.144;2023-05-24T04:42:47;18.20;99.90
45619;DHT22;31343;47.520;19.144;2023-05-24T04:45:14;18.20;99.90
45619;DHT22;31343;47.520;19.144;2023-05-24T04:47:40;18.30;99.90
45619;DHT22;31343;47.520;19.144;2023-05-24T04:50:06;18.30;99.90
45619;DHT22;31343;47.520;19.144;2023-05-24T04:52:33;18.40;99.90
45619;DHT22;31343;47.520;19.144;2023-05-24T04:55:02;18.40;99.90
45619;DHT22;31343;47.520;19.144;2023-05-24T04:57:28;18.50;99.90
45619;DHT22;31343;47.520;19.144;2023-05-24T04:59:53;18.70;99.90
45619;DHT22;31343;47.520;19.144;2023-05-24T05:02:19;18.90;99.90
45619;DHT22;31343;47.520;19.144;2023-05-24T05:04:46;19.20;99.90
45619;DHT22;31343;47.520;19.144;2023-05-24T05:07:12;19.20;99.90
45619;DHT22;31343;47.520;19.144;2023-05-24T05:09:38;19.40;99.90
45619;DHT22;31343;47.520;19.144;2023-05-24T05:12:04;19.40;99.90
45619;DHT22;31343;47.520;19.144;2023-05-24T05:14:29;19.50;99.90
45619;DHT22;31343;47.520;19.144;2023-05-24T05:16:55;19.60;99.90
45619;DHT22;31343;47.520;19.144;2023-05-24T05:19:21;19.70;99.90
45619;DHT22;31343;47.520;19.144;2023-05-24T05:21:47;20.30;99.90
45619;DHT22;31343;47.520;19.144;2023-05-24T05:24:14;20.90;99.90
45619;DHT22;31343;47.520;19.144;2023-05-24T05:26:40;21.60;99.90
45619;DHT22;31343;47.520;19.144;2023-05-24T05:29:06;22.60;99.90
45619;DHT22;31343;47.520;19.144;2023-05-24T05:31:32;23.60;99.90
45619;DHT22;31343;47.520;19.144;2023-05-24T05:33:57;24.40;99.90
45619;DHT22;31343;47.520;19.144;2023-05-24T05:36:23;25.10;99.90
45619;DHT22;31343;47.520;19.144;2023-05-24T05:38:49;25.30;99.90
45619;DHT22;31343;47.520;19.144;2023-05-24T05:41:15;25.40;99.90
45619;DHT22;31343;47.520;19.144;2023-05-24T05:43:40;25.20;99.90
45619;DHT22;31343;47.520;19.144;2023-05-24T05:46:06;24.30;99.90
45619;DHT22;31343;47.520;19.144;2023-05-24T05:48:32;24.90;99.90
45619;DHT22;31343;47.520;19.144;2023-05-24T05:50:57;25.30;99.90
45619;DHT22;31343;47.520;19.144;2023-05-24T05:53:23;25.60;99.90
45619;DHT22;31343;47.520;19.144;2023-05-24T05:55:49;26.20;99.80
45619;DHT22;31343;47.520;19.144;2023-05-24T05:58:15;26.90;98.30
45619;DHT22;31343;47.520;19.144;2023-05-24T06:00:41;27.40;97.50
45619;DHT22;31343;47.520;19.144;2023-05-24T06:03:06;27.90;96.70
45619;DHT22;31343;47.520;19.144;2023-05-24T06:05:32;28.10;95.90
45619;DHT22;31343;47.520;19.144;2023-05-24T06:07:58;27.30;96.30
45619;DHT22;31343;47.520;19.144;2023-05-24T06:10:23;26.80;97.10
45619;DHT22;31343;47.520;19.144;2023-05-24T06:12:49;25.90;98.20
45619;DHT22;31343;47.520;19.144;2023-05-24T06:15:15;25.00;99.90
45619;DHT22;31343;47.520;19.144;2023-05-24T06:17:41;25.40;99.90
45619;DHT22;31343;47.520;19.144;2023-05-24T06:20:08;26.00;99.10
45619;DHT22;31343;47.520;19.144;2023-05-24T06:22:36;25.70;98.50
45619;DHT22;31343;47.520;19.144;2023-05-24T06:25:03;25.40;98.90
45619;DHT22;31343;47.520;19.144;2023-05-24T06:27:29;25.00;99.90
45619;DHT22;31343;47.520;19.144;2023-05-24T06:29:55;24.70;99.90
45619;DHT22;31343;47.520;19.144;2023-05-24T06:32:21;24.40;99.90
45619;DHT22;31343;47.520;19.144;2023-05-24T06:34:46;24.90;99.90
45619;DHT22;31343;47.520;19.144;2023-05-24T06:37:12;25.50;99.80
45619;DHT22;31343;47.520;19.144;2023-05-24T06:39:40;26.70;97.50
45619;DHT22;31343;47.520;19.144;2023-05-24T06:42:06;27.30;96.30
45619;DHT22;31343;47.520;19.144;2023-05-24T06:44:31;27.60;96.20
45619;DHT22;31343;47.520;19.144;2023-05-24T06:47:02;28.00;95.30
45619;DHT22;31343;47.520;19.144;2023-05-24T06:49:28;28.50;94.50
45619;DHT22;31343;47.520;19.144;2023-05-24T06:51:54;29.60;93.30
45619;DHT22;31343;47.520;19.144;2023-05-24T06:54:20;30.00;91.90
45619;DHT22;31343;47.520;19.144;2023-05-24T06:56:46;30.10;91.90
45619;DHT22;31343;47.520;19.144;2023-05-24T06:59:12;30.70;91.20
45619;DHT22;31343;47.520;19.144;2023-05-24T07:01:38;30.10;91.20
45619;DHT22;31343;47.520;19.144;2023-05-24T07:04:10;29.70;91.60
45619;DHT22;31343;47.520;19.144;2023-05-24T07:06:37;29.30;92.00
45619;DHT22;31343;47.520;19.144;2023-05-24T07:09:03;29.60;91.50
45619;DHT22;31343;47.520;19.144;2023-05-24T07:11:30;29.30;91.60
45619;DHT22;31343;47.520;19.144;2023-05-24T07:13:56;28.90;91.90
45619;DHT22;31343;47.520;19.144;2023-05-24T07:16:22;28.10;92.70
45619;DHT22;31343;47.520;19.144;2023-05-24T07:18:48;28.60;92.90
45619;DHT22;31343;47.520;19.144;2023-05-24T07:21:14;28.90;92.90
45619;DHT22;31343;47.520;19.144;2023-05-24T07:23:39;28.90;92.80
45619;DHT22;31343;47.520;19.144;2023-05-24T07:26:05;28.40;92.80
45619;DHT22;31343;47.520;19.144;2023-05-24T07:28:31;28.20;93.30
45619;DHT22;31343;47.520;19.144;2023-05-24T07:30:57;28.20;93.30
45619;DHT22;31343;47.520;19.144;2023-05-24T07:33:23;27.80;93.80
45619;DHT22;31343;47.520;19.144;2023-05-24T07:35:48;27.40;94.70
45619;DHT22;31343;47.520;19.144;2023-05-24T07:38:17;27.50;94.40
45619;DHT22;31343;47.520;19.144;2023-05-24T07:40:43;27.60;94.30
45619;DHT22;31343;47.520;19.144;2023-05-24T07:43:09;27.90;94.40
45619;DHT22;31343;47.520;19.144;2023-05-24T07:45:34;28.30;93.90
45619;DHT22;31343;47.520;19.144;2023-05-24T07:48:00;28.30;93.60
45619;DHT22;31343;47.520;19.144;2023-05-24T07:50:26;28.40;93.50
45619;DHT22;31343;47.520;19.144;2023-05-24T07:52:55;28.10;93.60
45619;DHT22;31343;47.520;19.144;2023-05-24T07:55:20;28.30;93.30
45619;DHT22;31343;47.520;19.144;2023-05-24T07:57:46;28.30;93.70
45619;DHT22;31343;47.520;19.144;2023-05-24T08:00:12;28.00;93.70
45619;DHT22;31343;47.520;19.144;2023-05-24T08:02:42;27.60;93.90
45619;DHT22;31343;47.520;19.144;2023-05-24T08:05:14;27.60;94.40
45619;DHT22;31343;47.520;19.144;2023-05-24T08:07:41;27.90;94.30
45619;DHT22;31343;47.520;19.144;2023-05-24T08:10:08;28.00;94.30
45619;DHT22;31343;47.520;19.144;2023-05-24T08:12:35;28.00;93.70
45619;DHT22;31343;47.520;19.144;2023-05-24T08:15:01;27.70;94.00
45619;DHT22;31343;47.520;19.144;2023-05-24T08:17:26;27.20;94.60
45619;DHT22;31343;47.520;19.144;2023-05-24T08:19:53;27.50;94.70
45619;DHT22;31343;47.520;19.144;2023-05-24T08:22:19;27.80;94.20
45619;DHT22;31343;47.520;19.144;2023-05-24T08:24:46;27.90;94.20
45619;DHT22;31343;47.520;19.144;2023-05-24T08:27:12;27.80;94.70
45619;DHT22;31343;47.520;19.144;2023-05-24T08:29:38;28.30;93.60
45619;DHT22;31343;47.520;19.144;2023-05-24T08:32:04;28.10;93.90
45619;DHT22;31343;47.520;19.144;2023-05-24T08:34:34;28.20;94.10
45619;DHT22;31343;47.520;19.144;2023-05-24T08:37:01;28.50;93.50
45619;DHT22;31343;47.520;19.144;2023-05-24T08:39:27;28.60;93.40
45619;DHT22;31343;47.520;19.144;2023-05-24T08:41:54;28.40;93.00
45619;DHT22;31343;47.520;19.144;2023-05-24T08:44:20;28.10;93.20
45619;DHT22;31343;47.520;19.144;2023-05-24T08:46:47;28.40;93.50
45619;DHT22;31343;47.520;19.144;2023-05-24T08:49:14;28.20;93.70
45619;DHT22;31343;47.520;19.144;2023-05-24T08:51:40;27.90;93.60
45619;DHT22;31343;47.520;19.144;2023-05-24T08:54:08;27.60;93.80
45619;DHT22;31343;47.520;19.144;2023-05-24T08:56:35;26.30;94.30
45619;DHT22;31343;47.520;19.144;2023-05-24T08:59:01;26.00;95.70
45619;DHT22;31343;47.520;19.144;2023-05-24T09:01:29;26.30;95.70
45619;DHT22;31343;47.520;19.144;2023-05-24T09:03:55;26.70;95.80
45619;DHT22;31343;47.520;19.144;2023-05-24T09:06:21;26.70;95.20
45619;DHT22;31343;47.520;19.144;2023-05-24T09:08:50;26.90;94.60
45619;DHT22;31343;47.520;19.144;2023-05-24T09:11:17;27.00;94.80
45619;DHT22;31343;47.520;19.144;2023-05-24T09:13:44;26.80;95.00
45619;DHT22;31343;47.520;19.144;2023-05-24T09:16:10;26.70;94.50
45619;DHT22;31343;47.520;19.144;2023-05-24T09:18:36;26.80;94.70
45619;DHT22;31343;47.520;19.144;2023-05-24T09:21:02;27.00;94.40
45619;DHT22;31343;47.520;19.144;2023-05-24T09:23:27;26.40;94.90
45619;DHT22;31343;47.520;19.144;2023-05-24T09:25:54;26.70;95.40
45619;DHT22;31343;47.520;19.144;2023-05-24T09:28:20;26.90;95.10
45619;DHT22;31343;47.520;19.144;2023-05-24T09:30:57;27.20;95.00
45619;DHT22;31343;47.520;19.144;2023-05-24T09:33:28;27.20;93.90
45619;DHT22;31343;47.520;19.144;2023-05-24T09:36:04;27.20;95.00
45619;DHT22;31343;47.520;19.144;2023-05-24T09:38:31;27.20;94.50
45619;DHT22;31343;47.520;19.144;2023-05-24T09:41:05;26.40;94.90
45619;DHT22;31343;47.520;19.144;2023-05-24T09:43:32;26.10;94.90
45619;DHT22;31343;47.520;19.144;2023-05-24T09:46:02;25.80;95.70
45619;DHT22;31343;47.520;19.144;2023-05-24T09:48:28;26.00;95.90
45619;DHT22;31343;47.520;19.144;2023-05-24T09:51:06;25.60;96.40
45619;DHT22;31343;47.520;19.144;2023-05-24T09:53:36;25.80;95.50
45619;DHT22;31343;47.520;19.144;2023-05-24T09:56:05;25.40;95.90
45619;DHT22;31343;47.520;19.144;2023-05-24T09:58:34;25.60;96.30
45619;DHT22;31343;47.520;19.144;2023-05-24T10:01:10;26.00;97.30
45619;DHT22;31343;47.520;19.144;2023-05-24T10:03:38;26.20;96.20
45619;DHT22;31343;47.520;19.144;2023-05-24T10:06:05;26.30;96.00
45619;DHT22;31343;47.520;19.144;2023-05-24T10:08:34;26.30;95.50
45619;DHT22;31343;47.520;19.144;2023-05-24T10:11:04;26.10;95.90
45619;DHT22;31343;47.520;19.144;2023-05-24T10:13:34;26.20;96.20
45619;DHT22;31343;47.520;19.144;2023-05-24T10:16:03;26.40;95.90
45619;DHT22;31343;47.520;19.144;2023-05-24T10:18:29;26.90;95.90
45619;DHT22;31343;47.520;19.144;2023-05-24T10:20:55;26.80;95.10
45619;DHT22;31343;47.520;19.144;2023-05-24T10:23:23;26.50;95.20
45619;DHT22;31343;47.520;19.144;2023-05-24T10:25:59;26.50;94.90
45619;DHT22;31343;47.520;19.144;2023-05-24T10:28:28;26.70;95.90
45619;DHT22;31343;47.520;19.144;2023-05-24T10:31:18;27.10;95.60
45619;DHT22;31343;47.520;19.144;2023-05-24T10:33:48;27.50;94.30
45619;DHT22;31343;47.520;19.144;2023-05-24T10:36:16;27.50;93.90
45619;DHT22;31343;47.520;19.144;2023-05-24T10:38:45;27.60;93.90
45619;DHT22;31343;47.520;19.144;2023-05-24T10:41:11;27.70;93.90
45619;DHT22;31343;47.520;19.144;2023-05-24T10:43:38;27.70;93.30
45619;DHT22;31343;47.520;19.144;2023-05-24T10:46:07;27.80;92.80
45619;DHT22;31343;47.520;19.144;2023-05-24T10:48:40;27.80;92.70
45619;DHT22;31343;47.520;19.144;2023-05-24T10:51:36;28.20;92.30
45619;DHT22;31343;47.520;19.144;2023-05-24T10:54:18;28.80;92.10
45619;DHT22;31343;47.520;19.144;2023-05-24T10:56:49;28.50;91.70
45619;DHT22;31343;47.520;19.144;2023-05-24T10:59:41;28.90;90.70
45619;DHT22;31343;47.520;19.144;2023-05-24T11:02:09;29.40;91.30
45619;DHT22;31343;47.520;19.144;2023-05-24T11:04:49;29.00;91.00
45619;DHT22;31343;47.520;19.144;2023-05-24T11:07:17;28.90;91.00
45619;DHT22;31343;47.520;19.144;2023-05-24T11:09:46;29.10;90.80
45619;DHT22;31343;47.520;19.144;2023-05-24T11:12:18;29.30;90.70
45619;DHT22;31343;47.520;19.144;2023-05-24T11:14:52;29.50;90.30
45619;DHT22;31343;47.520;19.144;2023-05-24T11:17:19;30.00;90.10
45619;DHT22;31343;47.520;19.144;2023-05-24T11:19:48;30.80;88.50
45619;DHT22;31343;47.520;19.144;2023-05-24T11:22:14;31.30;86.80
45619;DHT22;31343;47.520;19.144;2023-05-24T11:24:40;31.70;85.90
45619;DHT22;31343;47.520;19.144;2023-05-24T11:27:06;31.20;84.60
45619;DHT22;31343;47.520;19.144;2023-05-24T11:29:43;31.90;84.70
45619;DHT22;31343;47.520;19.144;2023-05-24T11:32:13;32.50;84.00
45619;DHT22;31343;47.520;19.144;2023-05-24T11:34:40;32.60;82.60
45619;DHT22;31343;47.520;19.144;2023-05-24T11:37:06;33.00;81.50
45619;DHT22;31343;47.520;19.144;2023-05-24T11:39:34;32.90;81.50
45619;DHT22;31343;47.520;19.144;2023-05-24T11:42:03;33.20;80.50
45619;DHT22;31343;47.520;19.144;2023-05-24T11:44:31;33.30;79.10
45619;DHT22;31343;47.520;19.144;2023-05-24T11:47:01;33.20;78.20
45619;DHT22;31343;47.520;19.144;2023-05-24T11:49:27;33.50;78.90
45619;DHT22;31343;47.520;19.144;2023-05-24T11:51:54;33.80;77.60
45619;DHT22;31343;47.520;19.144;2023-05-24T11:54:22;33.30;77.40
45619;DHT22;31343;47.520;19.144;2023-05-24T11:56:47;32.90;78.60
45619;DHT22;31343;47.520;19.144;2023-05-24T11:59:24;32.50;78.70
45619;DHT22;31343;47.520;19.144;2023-05-24T12:02:01;32.20;78.80
45619;DHT22;31343;47.520;19.144;2023-05-24T12:04:28;31.70;79.80
45619;DHT22;31343;47.520;19.144;2023-05-24T12:06:54;31.70;81.40
45619;DHT22;31343;47.520;19.144;2023-05-24T12:09:20;31.50;81.10
45619;DHT22;31343;47.520;19.144;2023-05-24T12:11:48;31.20;81.20
45619;DHT22;31343;47.520;19.144;2023-05-24T12:14:20;30.70;82.00
45619;DHT22;31343;47.520;19.144;2023-05-24T12:16:47;30.00;82.30
45619;DHT22;31343;47.520;19.144;2023-05-24T12:19:17;29.30;84.30
45619;DHT22;31343;47.520;19.144;2023-05-24T12:21:43;29.00;85.40
45619;DHT22;31343;47.520;19.144;2023-05-24T12:24:18;28.50;86.60
45619;DHT22;31343;47.520;19.144;2023-05-24T12:26:46;29.30;86.20
45619;DHT22;31343;47.520;19.144;2023-05-24T12:29:12;29.40;84.80
45619;DHT22;31343;47.520;19.144;2023-05-24T12:31:43;30.00;85.50
45619;DHT22;31343;47.520;19.144;2023-05-24T12:34:19;31.00;83.30
45619;DHT22;31343;47.520;19.144;2023-05-24T12:36:45;31.30;81.40
45619;DHT22;31343;47.520;19.144;2023-05-24T12:39:21;30.70;80.30
45619;DHT22;31343;47.520;19.144;2023-05-24T12:41:53;30.30;82.40
45619;DHT22;31343;47.520;19.144;2023-05-24T12:44:27;29.90;82.90
45619;DHT22;31343;47.520;19.144;2023-05-24T12:46:54;30.20;83.40
45619;DHT22;31343;47.520;19.144;2023-05-24T12:49:21;30.00;82.80
45619;DHT22;31343;47.520;19.144;2023-05-24T12:51:47;29.30;84.30
45619;DHT22;31343;47.520;19.144;2023-05-24T12:54:14;29.50;84.70
45619;DHT22;31343;47.520;19.144;2023-05-24T12:56:39;29.50;85.40
45619;DHT22;31343;47.520;19.144;2023-05-24T12:59:06;29.00;84.90
45619;DHT22;31343;47.520;19.144;2023-05-24T13:01:31;28.70;85.10
45619;DHT22;31343;47.520;19.144;2023-05-24T13:03:57;28.80;86.40
45619;DHT22;31343;47.520;19.144;2023-05-24T13:06:24;29.10;86.40
45619;DHT22;31343;47.520;19.144;2023-05-24T13:08:50;29.00;85.90
45619;DHT22;31343;47.520;19.144;2023-05-24T13:11:16;28.80;85.40
45619;DHT22;31343;47.520;19.144;2023-05-24T13:13:42;28.40;85.30
45619;DHT22;31343;47.520;19.144;2023-05-24T13:16:10;28.00;87.00
45619;DHT22;31343;47.520;19.144;2023-05-24T13:18:36;27.90;88.50
45619;DHT22;31343;47.520;19.144;2023-05-24T13:21:05;28.10;88.10
45619;DHT22;31343;47.520;19.144;2023-05-24T13:23:32;28.00;87.50
45619;DHT22;31343;47.520;19.144;2023-05-24T13:25:58;28.10;87.00
45619;DHT22;31343;47.520;19.144;2023-05-24T13:28:24;28.10;86.80
45619;DHT22;31343;47.520;19.144;2023-05-24T13:30:50;28.20;87.70
45619;DHT22;31343;47.520;19.144;2023-05-24T13:33:16;28.30;87.40
45619;DHT22;31343;47.520;19.144;2023-05-24T13:35:42;28.20;87.00
45619;DHT22;31343;47.520;19.144;2023-05-24T13:38:08;28.20;87.30
45619;DHT22;31343;47.520;19.144;2023-05-24T13:40:34;27.90;87.40
45619;DHT22;31343;47.520;19.144;2023-05-24T13:42:59;27.80;87.30
45619;DHT22;31343;47.520;19.144;2023-05-24T13:45:25;27.90;87.90
45619;DHT22;31343;47.520;19.144;2023-05-24T13:47:52;27.80;87.20
45619;DHT22;31343;47.520;19.144;2023-05-24T13:50:18;27.80;86.90
45619;DHT22;31343;47.520;19.144;2023-05-24T13:52:48;27.40;88.40
45619;DHT22;31343;47.520;19.144;2023-05-24T13:55:13;27.10;88.40
45619;DHT22;31343;47.520;19.144;2023-05-24T13:57:39;27.20;89.50
45619;DHT22;31343;47.520;19.144;2023-05-24T14:00:05;27.00;88.20
45619;DHT22;31343;47.520;19.144;2023-05-24T14:02:33;27.00;89.30
45619;DHT22;31343;47.520;19.144;2023-05-24T14:04:59;27.00;89.80
45619;DHT22;31343;47.520;19.144;2023-05-24T14:07:25;27.00;88.70
45619;DHT22;31343;47.520;19.144;2023-05-24T14:09:50;26.80;88.90
45619;DHT22;31343;47.520;19.144;2023-05-24T14:12:16;26.80;89.80
45619;DHT22;31343;47.520;19.144;2023-05-24T14:14:42;26.90;90.00
45619;DHT22;31343;47.520;19.144;2023-05-24T14:17:08;27.00;89.10
45619;DHT22;31343;47.520;19.144;2023-05-24T14:19:33;27.00;88.80
45619;DHT22;31343;47.520;19.144;2023-05-24T14:21:59;26.70;88.90
45619;DHT22;31343;47.520;19.144;2023-05-24T14:24:25;26.70;89.70
45619;DHT22;31343;47.520;19.144;2023-05-24T14:26:51;26.60;89.50
45619;DHT22;31343;47.520;19.144;2023-05-24T14:29:16;26.50;90.00
45619;DHT22;31343;47.520;19.144;2023-05-24T14:31:42;26.50;90.00
45619;DHT22;31343;47.520;19.144;2023-05-24T14:34:09;26.60;89.80
45619;DHT22;31343;47.520;19.144;2023-05-24T14:36:36;26.60;89.90
45619;DHT22;31343;47.520;19.144;2023-05-24T14:39:06;26.60;90.00
45619;DHT22;31343;47.520;19.144;2023-05-24T14:41:33;26.50;90.30
45619;DHT22;31343;47.520;19.144;2023-05-24T14:43:59;26.50;90.30
45619;DHT22;31343;47.520;19.144;2023-05-24T14:46:25;26.40;90.10
45619;DHT22;31343;47.520;19.144;2023-05-24T14:48:51;26.50;90.20
45619;DHT22;31343;47.520;19.144;2023-05-24T14:51:17;26.30;90.00
45619;DHT22;31343;47.520;19.144;2023-05-24T14:53:43;26.30;90.40
45619;DHT22;31343;47.520;19.144;2023-05-24T14:56:10;26.20;90.40
45619;DHT22;31343;47.520;19.144;2023-05-24T14:58:38;26.00;90.30
45619;DHT22;31343;47.520;19.144;2023-05-24T15:01:04;26.10;90.40
45619;DHT22;31343;47.520;19.144;2023-05-24T15:03:31;26.10;90.60
45619;DHT22;31343;47.520;19.144;2023-05-24T15:05:57;26.10;90.90
45619;DHT22;31343;47.520;19.144;2023-05-24T15:08:23;26.10;90.70
45619;DHT22;31343;47.520;19.144;2023-05-24T15:10:50;26.10;90.50
45619;DHT22;31343;47.520;19.144;2023-05-24T15:13:17;26.00;90.30
45619;DHT22;31343;47.520;19.144;2023-05-24T15:15:43;26.00;90.90
45619;DHT22;31343;47.520;19.144;2023-05-24T15:18:09;25.90;90.70
45619;DHT22;31343;47.520;19.144;2023-05-24T15:20:35;25.80;90.80
45619;DHT22;31343;47.520;19.144;2023-05-24T15:23:01;25.70;90.90
45619;DHT22;31343;47.520;19.144;2023-05-24T15:25:27;25.70;91.00
45619;DHT22;31343;47.520;19.144;2023-05-24T15:27:53;25.60;90.70